createdAt,value
2023-07-09T00:00:20.103Z,86.77
2023-07-09T00:01:20.093Z,86.68
2023-07-09T00:02:41.097Z,86.48
2023-07-09T00:03:20.012Z,86.77
2023-07-09T00:04:20.104Z,86.68
2023-07-09T00:05:19.958Z,87.26
2023-07-09T00:06:21.877Z,87.35
2023-07-09T00:07:19.918Z,87.35
2023-07-09T00:08:40.871Z,87.06
2023-07-09T00:09:19.844Z,86.82
2023-07-09T00:10:19.827Z,87.02
2023-07-09T00:11:19.795Z,87.12
2023-07-09T00:12:19.761Z,86.73
2023-07-09T00:13:19.760Z,86.92
2023-07-09T00:14:40.709Z,87.41
2023-07-09T00:15:19.694Z,87.02
2023-07-09T00:16:19.736Z,87.60
2023-07-09T00:17:19.668Z,86.92
2023-07-09T00:18:19.607Z,87.60
2023-07-09T00:19:19.766Z,87.31
2023-07-09T00:20:40.548Z,87.12
2023-07-09T00:21:19.522Z,87.50
2023-07-09T00:22:19.495Z,87.70
2023-07-09T00:23:19.484Z,87.50
2023-07-09T00:24:19.436Z,87.60
2023-07-09T00:25:19.418Z,87.89
2023-07-09T00:26:40.411Z,88.37
2023-07-09T00:27:19.364Z,87.65
2023-07-09T00:28:19.334Z,87.75
2023-07-09T00:29:19.304Z,87.70
2023-07-09T00:30:19.276Z,88.62
2023-07-09T00:31:19.318Z,88.47
2023-07-09T00:32:40.264Z,88.13
2023-07-09T00:33:19.198Z,88.04
2023-07-09T00:34:19.174Z,87.65
2023-07-09T00:35:19.145Z,88.33
2023-07-09T00:36:19.117Z,88.43
2023-07-09T00:37:19.094Z,88.13
2023-07-09T00:38:40.142Z,88.23
2023-07-09T00:39:19.379Z,88.04
2023-07-09T00:40:19.018Z,88.33
2023-07-09T00:41:18.978Z,88.23
2023-07-09T00:42:18.956Z,87.95
2023-07-09T00:43:18.929Z,88.23
2023-07-09T00:44:39.899Z,88.04
2023-07-09T00:45:18.892Z,88.13
2023-07-09T00:46:18.960Z,88.23
2023-07-09T00:47:18.868Z,87.95
2023-07-09T00:48:18.817Z,88.13
2023-07-09T00:49:18.758Z,88.23
2023-07-09T00:50:39.739Z,88.04
2023-07-09T00:51:18.737Z,88.23
2023-07-09T00:52:18.725Z,88.33
2023-07-09T00:53:18.663Z,88.04
2023-07-09T00:54:18.615Z,88.23
2023-07-09T00:55:18.653Z,88.23
2023-07-09T00:56:39.566Z,88.62
2023-07-09T00:57:18.602Z,88.04
2023-07-09T00:58:18.532Z,88.13
2023-07-09T00:59:18.480Z,88.33
2023-07-09T01:00:18.474Z,88.43
2023-07-09T01:01:18.459Z,88.43
2023-07-09T01:02:39.413Z,88.43
2023-07-09T01:03:18.377Z,88.13
2023-07-09T01:04:18.345Z,88.04
2023-07-09T01:05:18.390Z,88.57
2023-07-09T01:06:18.300Z,88.39
2023-07-09T01:07:18.262Z,88.29
2023-07-09T01:08:39.237Z,88.19
2023-07-09T01:09:18.207Z,88.57
2023-07-09T01:10:18.192Z,88.29
2023-07-09T01:11:18.157Z,88.77
2023-07-09T01:12:18.127Z,88.87
2023-07-09T01:13:18.102Z,88.09
2023-07-09T01:14:39.074Z,88.19
2023-07-09T01:15:18.043Z,88.48
2023-07-09T01:16:18.028Z,88.19
2023-07-09T01:17:17.989Z,88.87
2023-07-09T01:18:17.957Z,88.57
2023-07-09T01:19:17.928Z,88.57
2023-07-09T01:20:38.906Z,88.57
2023-07-09T01:21:17.877Z,88.43
2023-07-09T01:22:17.850Z,88.82
2023-07-09T01:23:17.899Z,88.73
2023-07-09T01:24:17.793Z,89.01
2023-07-09T01:25:17.805Z,89.21
2023-07-09T01:26:38.737Z,89.11
2023-07-09T01:27:17.707Z,89.11
2023-07-09T01:28:17.688Z,89.11
2023-07-09T01:29:17.653Z,89.01
2023-07-09T01:30:17.619Z,88.92
2023-07-09T01:31:17.628Z,88.82
2023-07-09T01:32:38.613Z,89.01
2023-07-09T01:33:17.541Z,88.53
2023-07-09T01:34:17.513Z,88.24
2023-07-09T01:35:17.487Z,88.43
2023-07-09T01:36:17.459Z,88.63
2023-07-09T01:37:17.428Z,88.53
2023-07-09T01:38:38.425Z,88.73
2023-07-09T01:39:17.381Z,87.95
2023-07-09T01:40:29.229Z,88.15
2023-07-09T01:41:17.319Z,87.95
2023-07-09T01:42:17.298Z,87.95
2023-07-09T01:43:17.277Z,88.05
2023-07-09T01:44:38.235Z,87.85
2023-07-09T01:45:17.224Z,88.05
2023-07-09T01:46:17.184Z,87.95
2023-07-09T01:47:17.248Z,87.95
2023-07-09T01:48:17.524Z,88.05
2023-07-09T01:49:17.105Z,88.05
2023-07-09T01:50:38.073Z,88.15
2023-07-09T01:51:17.050Z,88.05
2023-07-09T01:52:17.015Z,87.85
2023-07-09T01:53:17.012Z,88.15
2023-07-09T01:54:17.022Z,88.05
2023-07-09T01:55:16.932Z,87.95
2023-07-09T01:56:37.895Z,88.43
2023-07-09T01:57:16.876Z,87.91
2023-07-09T01:58:16.844Z,88.10
2023-07-09T01:59:16.822Z,88.68
2023-07-09T02:00:16.837Z,88.82
2023-07-09T02:01:16.799Z,88.15
2023-07-09T02:02:37.759Z,88.63
2023-07-09T02:03:16.736Z,88.73
2023-07-09T02:04:16.701Z,88.73
2023-07-09T02:05:16.658Z,88.29
2023-07-09T02:06:16.668Z,88.59
2023-07-09T02:07:16.595Z,88.49
2023-07-09T02:08:37.567Z,88.82
2023-07-09T02:09:16.546Z,88.59
2023-07-09T02:10:16.625Z,88.29
2023-07-09T02:11:16.485Z,88.59
2023-07-09T02:12:16.455Z,88.97
2023-07-09T02:13:16.433Z,88.10
2023-07-09T02:14:37.401Z,88.49
2023-07-09T02:15:16.385Z,88.59
2023-07-09T02:16:16.346Z,88.39
2023-07-09T02:17:16.399Z,88.49
2023-07-09T02:18:16.302Z,87.91
2023-07-09T02:19:16.257Z,88.59
2023-07-09T02:20:37.234Z,88.59
2023-07-09T02:21:16.208Z,88.49
2023-07-09T02:22:16.176Z,88.68
2023-07-09T02:23:16.147Z,88.68
2023-07-09T02:24:16.120Z,88.49
2023-07-09T02:25:16.093Z,88.29
2023-07-09T02:26:37.162Z,88.68
2023-07-09T02:27:16.049Z,88.68
2023-07-09T02:28:16.005Z,88.39
2023-07-09T02:29:15.981Z,88.68
2023-07-09T02:30:15.952Z,88.68
2023-07-09T02:31:15.959Z,88.78
2023-07-09T02:32:36.976Z,88.59
2023-07-09T02:33:15.874Z,89.07
2023-07-09T02:34:15.834Z,88.87
2023-07-09T02:35:15.816Z,88.39
2023-07-09T02:36:15.781Z,88.59
2023-07-09T02:37:15.753Z,88.78
2023-07-09T02:38:36.727Z,88.97
2023-07-09T02:39:15.699Z,88.97
2023-07-09T02:40:15.667Z,88.78
2023-07-09T02:41:15.642Z,88.68
2023-07-09T02:42:15.624Z,88.87
2023-07-09T02:43:15.586Z,88.87
2023-07-09T02:44:36.557Z,88.68
2023-07-09T02:45:15.533Z,88.39
2023-07-09T02:46:15.498Z,89.36
2023-07-09T02:47:15.546Z,89.26
2023-07-09T02:48:15.525Z,89.17
2023-07-09T02:49:15.419Z,89.55
2023-07-09T02:50:36.379Z,89.65
2023-07-09T02:51:15.359Z,89.36
2023-07-09T02:52:15.350Z,89.07
2023-07-09T02:53:15.310Z,89.36
2023-07-09T02:54:15.276Z,89.94
2023-07-09T02:55:15.250Z,89.75
2023-07-09T02:56:36.268Z,90.13
2023-07-09T02:57:15.192Z,89.75
2023-07-09T02:58:15.164Z,89.65
2023-07-09T02:59:15.134Z,89.75
2023-07-09T03:00:15.111Z,89.84
2023-07-09T03:01:15.084Z,89.61
2023-07-09T03:02:36.081Z,89.94
2023-07-09T03:03:15.061Z,89.75
2023-07-09T03:04:14.994Z,89.65
2023-07-09T03:05:14.957Z,89.94
2023-07-09T03:06:14.936Z,89.99
2023-07-09T03:07:14.971Z,89.70
2023-07-09T03:08:35.881Z,89.75
2023-07-09T03:09:14.857Z,89.70
2023-07-09T03:10:14.870Z,89.55
2023-07-09T03:11:14.798Z,89.94
2023-07-09T03:12:14.770Z,89.79
2023-07-09T03:13:14.736Z,89.70
2023-07-09T03:14:35.715Z,89.99
2023-07-09T03:15:14.680Z,89.99
2023-07-09T03:16:14.703Z,89.99
2023-07-09T03:17:14.647Z,90.09
2023-07-09T03:18:14.601Z,90.09
2023-07-09T03:19:14.575Z,89.61
2023-07-09T03:20:35.540Z,89.70
2023-07-09T03:21:14.514Z,90.28
2023-07-09T03:22:14.489Z,90.47
2023-07-09T03:23:14.497Z,89.70
2023-07-09T03:24:14.433Z,89.70
2023-07-09T03:25:14.405Z,89.99
2023-07-09T03:26:35.392Z,89.99
2023-07-09T03:27:14.356Z,90.47
2023-07-09T03:28:14.319Z,89.99
2023-07-09T03:29:14.287Z,89.99
2023-07-09T03:30:14.270Z,90.28
2023-07-09T03:31:14.235Z,90.47
2023-07-09T03:32:35.225Z,90.57
2023-07-09T03:33:14.176Z,90.19
2023-07-09T03:34:14.149Z,90.57
2023-07-09T03:35:14.180Z,90.67
2023-07-09T03:36:14.371Z,90.86
2023-07-09T03:37:14.125Z,90.37
2023-07-09T03:38:35.033Z,90.67
2023-07-09T03:39:14.009Z,90.57
2023-07-09T03:40:13.985Z,90.47
2023-07-09T03:41:13.955Z,90.67
2023-07-09T03:42:13.929Z,90.57
2023-07-09T03:43:13.903Z,90.28
2023-07-09T03:44:34.863Z,90.67
2023-07-09T03:45:13.841Z,90.67
2023-07-09T03:46:13.815Z,90.57
2023-07-09T03:47:13.837Z,90.86
2023-07-09T03:48:13.796Z,90.95
2023-07-09T03:49:13.733Z,91.15
2023-07-09T03:50:34.691Z,91.25
2023-07-09T03:51:13.666Z,91.05
2023-07-09T03:52:13.639Z,91.05
2023-07-09T03:53:13.609Z,91.05
2023-07-09T03:54:13.587Z,91.63
2023-07-09T03:55:13.558Z,91.15
2023-07-09T03:56:34.528Z,91.44
2023-07-09T03:57:13.502Z,91.53
2023-07-09T03:58:13.466Z,91.44
2023-07-09T03:59:13.444Z,91.44
2023-07-09T04:00:13.425Z,91.44
2023-07-09T04:01:13.396Z,91.53
2023-07-09T04:02:34.391Z,91.44
2023-07-09T04:03:13.324Z,91.83
2023-07-09T04:04:13.452Z,91.63
2023-07-09T04:05:13.277Z,91.63
2023-07-09T04:06:13.241Z,91.63
2023-07-09T04:07:13.227Z,91.83
2023-07-09T04:08:34.185Z,91.63
2023-07-09T04:09:13.150Z,92.02
2023-07-09T04:10:13.134Z,91.83
2023-07-09T04:11:13.099Z,91.53
2023-07-09T04:12:13.070Z,91.83
2023-07-09T04:13:13.063Z,91.92
2023-07-09T04:14:34.012Z,91.44
2023-07-09T04:15:12.987Z,91.92
2023-07-09T04:16:13.022Z,91.92
2023-07-09T04:17:12.924Z,91.53
2023-07-09T04:18:12.914Z,91.63
2023-07-09T04:19:12.879Z,91.35
2023-07-09T04:20:33.840Z,91.92
2023-07-09T04:21:12.814Z,91.53
2023-07-09T04:22:12.791Z,91.63
2023-07-09T04:23:12.770Z,91.44
2023-07-09T04:24:12.737Z,91.63
2023-07-09T04:25:12.721Z,91.53
2023-07-09T04:26:33.667Z,91.63
2023-07-09T04:27:12.644Z,91.44
2023-07-09T04:28:12.617Z,91.63
2023-07-09T04:29:12.586Z,91.35
2023-07-09T04:30:12.563Z,91.44
2023-07-09T04:31:12.590Z,91.35
2023-07-09T04:32:33.508Z,91.44
2023-07-09T04:33:12.466Z,91.73
2023-07-09T04:34:12.457Z,91.73
2023-07-09T04:35:12.415Z,91.35
2023-07-09T04:36:12.384Z,91.44
2023-07-09T04:37:12.359Z,91.83
2023-07-09T04:38:34.516Z,91.63
2023-07-09T04:39:12.306Z,91.63
2023-07-09T04:40:12.279Z,91.83
2023-07-09T04:41:12.244Z,91.53
2023-07-09T04:42:12.217Z,91.77
2023-07-09T04:43:12.196Z,91.63
2023-07-09T04:44:33.166Z,91.53
2023-07-09T04:45:12.162Z,91.63
2023-07-09T04:46:13.247Z,91.77
2023-07-09T04:47:12.078Z,91.53
2023-07-09T04:48:12.076Z,92.07
2023-07-09T04:49:12.020Z,91.97
2023-07-09T04:50:32.995Z,92.02
2023-07-09T04:51:11.973Z,91.97
2023-07-09T04:52:11.972Z,91.58
2023-07-09T04:53:11.908Z,91.58
2023-07-09T04:54:11.917Z,91.77
2023-07-09T04:55:11.848Z,91.67
2023-07-09T04:56:32.842Z,91.67
2023-07-09T04:57:11.792Z,91.67
2023-07-09T04:58:11.784Z,91.49
2023-07-09T04:59:11.735Z,91.49
2023-07-09T05:00:12.236Z,91.49
2023-07-09T05:01:11.725Z,91.49
2023-07-09T05:02:32.691Z,90.61
2023-07-09T05:03:11.706Z,91.67
2023-07-09T05:04:11.641Z,91.29
2023-07-09T05:05:11.568Z,91.00
2023-07-09T05:06:11.568Z,91.00
2023-07-09T05:07:11.512Z,91.19
2023-07-09T05:08:32.494Z,90.91
2023-07-09T05:09:11.459Z,91.19
2023-07-09T05:10:11.433Z,91.19
2023-07-09T05:11:11.399Z,91.00
2023-07-09T05:12:11.381Z,90.61
2023-07-09T05:13:11.367Z,90.91
2023-07-09T05:14:32.316Z,91.33
2023-07-09T05:15:11.289Z,90.66
2023-07-09T05:16:11.305Z,91.33
2023-07-09T05:17:11.230Z,91.14
2023-07-09T05:18:11.236Z,91.14
2023-07-09T05:19:11.178Z,91.24
2023-07-09T05:20:32.158Z,91.24
2023-07-09T05:21:11.130Z,91.14
2023-07-09T05:22:11.100Z,91.33
2023-07-09T05:23:11.067Z,91.24
2023-07-09T05:24:11.125Z,91.24
2023-07-09T05:25:11.011Z,91.14
2023-07-09T05:26:31.982Z,91.14
2023-07-09T05:27:10.949Z,90.85
2023-07-09T05:28:10.927Z,91.33
2023-07-09T05:29:10.903Z,90.56
2023-07-09T05:30:10.887Z,91.14
2023-07-09T05:31:10.901Z,91.24
2023-07-09T05:32:31.857Z,91.38
2023-07-09T05:33:10.866Z,91.14
2023-07-09T05:34:10.758Z,91.14
2023-07-09T05:35:10.739Z,91.24
2023-07-09T05:36:10.699Z,90.99
2023-07-09T05:37:10.668Z,91.28
2023-07-09T05:38:31.703Z,91.19
2023-07-09T05:39:10.634Z,90.99
2023-07-09T05:40:10.584Z,90.70
2023-07-09T05:41:10.560Z,90.90
2023-07-09T05:42:10.535Z,90.70
2023-07-09T05:43:10.501Z,91.09
2023-07-09T05:44:31.474Z,90.61
2023-07-09T05:45:10.458Z,91.28
2023-07-09T05:46:10.431Z,90.80
2023-07-09T05:47:10.448Z,91.38
2023-07-09T05:48:10.388Z,91.19
2023-07-09T05:49:12.012Z,90.70
2023-07-09T05:50:31.337Z,90.80
2023-07-09T05:51:10.277Z,90.61
2023-07-09T05:52:10.252Z,90.90
2023-07-09T05:53:10.227Z,90.65
2023-07-09T05:54:10.205Z,90.80
2023-07-09T05:55:10.170Z,91.04
2023-07-09T05:56:31.145Z,90.75
2023-07-09T05:57:10.113Z,90.75
2023-07-09T05:58:10.099Z,90.17
2023-07-09T05:59:10.062Z,90.46
2023-07-09T06:00:12.046Z,90.65
2023-07-09T06:01:10.071Z,90.36
2023-07-09T06:02:31.013Z,90.17
2023-07-09T06:03:10.074Z,90.36
2023-07-09T06:04:10.037Z,89.97
2023-07-09T06:05:09.956Z,90.26
2023-07-09T06:06:09.889Z,90.46
2023-07-09T06:07:09.853Z,90.26
2023-07-09T06:08:30.822Z,90.17
2023-07-09T06:09:09.783Z,90.26
2023-07-09T06:10:09.762Z,90.26
2023-07-09T06:11:09.726Z,90.02
2023-07-09T06:12:09.746Z,90.21
2023-07-09T06:13:09.673Z,89.53
2023-07-09T06:14:30.655Z,89.63
2023-07-09T06:15:09.619Z,89.44
2023-07-09T06:16:09.590Z,90.02
2023-07-09T06:17:09.646Z,89.83
2023-07-09T06:18:09.552Z,90.02
2023-07-09T06:19:09.512Z,89.34
2023-07-09T06:20:30.496Z,89.97
2023-07-09T06:21:09.460Z,89.00
2023-07-09T06:22:09.425Z,89.19
2023-07-09T06:23:09.407Z,89.58
2023-07-09T06:24:09.374Z,89.48
2023-07-09T06:25:09.343Z,89.39
2023-07-09T06:26:30.322Z,89.29
2023-07-09T06:27:09.294Z,88.81
2023-07-09T06:28:09.261Z,89.09
2023-07-09T06:29:09.237Z,89.58
2023-07-09T06:30:09.224Z,89.58
2023-07-09T06:31:09.212Z,89.48
2023-07-09T06:32:30.216Z,89.09
2023-07-09T06:33:09.305Z,89.68
2023-07-09T06:34:09.101Z,89.09
2023-07-09T06:35:09.079Z,89.00
2023-07-09T06:36:09.050Z,88.71
2023-07-09T06:37:09.027Z,88.65
2023-07-09T06:38:30.025Z,89.23
2023-07-09T06:39:08.970Z,88.46
2023-07-09T06:40:08.949Z,88.27
2023-07-09T06:41:08.918Z,88.56
2023-07-09T06:42:08.894Z,88.75
2023-07-09T06:43:08.858Z,89.04
2023-07-09T06:44:29.834Z,88.17
2023-07-09T06:45:08.808Z,88.46
2023-07-09T06:46:11.567Z,88.27
2023-07-09T06:47:08.855Z,88.27
2023-07-09T06:48:08.789Z,87.98
2023-07-09T06:49:08.701Z,88.60
2023-07-09T06:50:29.672Z,88.41
2023-07-09T06:51:08.656Z,88.31
2023-07-09T06:52:08.634Z,88.60
2023-07-09T06:53:08.593Z,88.31
2023-07-09T06:54:08.575Z,88.70
2023-07-09T06:55:08.564Z,88.21
2023-07-09T06:56:29.540Z,88.51
2023-07-09T06:57:08.500Z,88.02
2023-07-09T06:58:08.471Z,87.44
2023-07-09T06:59:08.440Z,87.92
2023-07-09T07:00:08.424Z,87.73
2023-07-09T07:01:08.378Z,87.73
2023-07-09T07:02:29.404Z,87.82
2023-07-09T07:03:08.478Z,88.06
2023-07-09T07:04:08.346Z,87.48
2023-07-09T07:05:08.277Z,87.77
2023-07-09T07:06:08.479Z,87.38
2023-07-09T07:07:08.223Z,87.77
2023-07-09T07:08:29.189Z,87.87
2023-07-09T07:09:08.181Z,87.87
2023-07-09T07:10:08.202Z,87.87
2023-07-09T07:11:08.109Z,88.30
2023-07-09T07:12:08.081Z,88.01
2023-07-09T07:13:08.069Z,88.30
2023-07-09T07:14:29.038Z,88.10
2023-07-09T07:15:08.010Z,87.72
2023-07-09T07:16:08.026Z,87.72
2023-07-09T07:17:07.966Z,87.72
2023-07-09T07:18:07.983Z,86.85
2023-07-09T07:19:07.899Z,87.04
2023-07-09T07:20:28.875Z,86.69
2023-07-09T07:21:07.882Z,87.08
2023-07-09T07:22:07.822Z,87.18
2023-07-09T07:23:07.796Z,86.60
2023-07-09T07:24:07.762Z,86.69
2023-07-09T07:25:07.756Z,86.89
2023-07-09T07:26:28.737Z,86.21
2023-07-09T07:27:07.702Z,85.63
2023-07-09T07:28:07.672Z,85.77
2023-07-09T07:29:07.640Z,85.92
2023-07-09T07:30:07.620Z,85.86
2023-07-09T07:31:07.580Z,85.77
2023-07-09T07:32:28.575Z,85.77
2023-07-09T07:33:07.634Z,85.67
2023-07-09T07:34:07.524Z,85.77
2023-07-09T07:35:07.502Z,85.47
2023-07-09T07:36:28.113Z,84.11
2023-07-09T07:37:07.423Z,84.11
2023-07-09T07:38:28.415Z,84.31
2023-07-09T07:39:07.370Z,84.21
2023-07-09T07:40:07.364Z,83.92
2023-07-09T07:41:07.331Z,84.79
2023-07-09T07:42:07.753Z,84.50
2023-07-09T07:43:07.270Z,84.74
2023-07-09T07:44:28.252Z,84.45
2023-07-09T07:45:07.233Z,85.03
2023-07-09T07:46:07.512Z,84.83
2023-07-09T07:47:07.178Z,84.83
2023-07-09T07:48:07.186Z,84.83
2023-07-09T07:49:07.123Z,84.00
2023-07-09T07:50:28.103Z,83.76
2023-07-09T07:51:07.086Z,83.61
2023-07-09T07:52:07.041Z,83.91
2023-07-09T07:53:07.015Z,83.61
2023-07-09T07:54:07.000Z,83.61
2023-07-09T07:55:06.969Z,83.42
2023-07-09T07:56:28.026Z,83.81
2023-07-09T07:57:06.933Z,82.93
2023-07-09T07:58:06.891Z,83.61
2023-07-09T07:59:06.867Z,83.51
2023-07-09T08:00:06.848Z,83.42
2023-07-09T08:01:07.084Z,83.56
2023-07-09T08:02:27.878Z,82.58
2023-07-09T08:03:06.824Z,82.97
2023-07-09T08:04:06.790Z,83.07
2023-07-09T08:05:06.717Z,83.65
2023-07-09T08:06:06.850Z,82.87
2023-07-09T08:07:06.685Z,82.78
2023-07-09T08:08:27.649Z,82.87
2023-07-09T08:09:06.611Z,82.58
2023-07-09T08:10:06.598Z,83.21
2023-07-09T08:11:06.811Z,83.07
2023-07-09T08:12:06.540Z,82.92
2023-07-09T08:13:06.521Z,83.11
2023-07-09T08:14:27.493Z,83.11
2023-07-09T08:15:06.486Z,82.92
2023-07-09T08:16:06.651Z,82.72
2023-07-09T08:17:06.419Z,82.72
2023-07-09T08:18:06.435Z,82.82
2023-07-09T08:19:06.367Z,82.92
2023-07-09T08:20:27.338Z,82.23
2023-07-09T08:21:06.308Z,82.37
2023-07-09T08:22:06.286Z,82.18
2023-07-09T08:23:06.263Z,82.08
2023-07-09T08:24:06.253Z,81.88
2023-07-09T08:25:06.214Z,82.28
2023-07-09T08:26:27.204Z,81.59
2023-07-09T08:27:06.163Z,81.49
2023-07-09T08:28:06.160Z,81.40
2023-07-09T08:29:06.141Z,81.73
2023-07-09T08:30:06.091Z,82.12
2023-07-09T08:31:06.269Z,81.69
2023-07-09T08:32:27.061Z,80.95
2023-07-09T08:33:06.075Z,80.76
2023-07-09T08:34:05.997Z,80.76
2023-07-09T08:35:33.815Z,80.56
2023-07-09T08:36:05.954Z,81.05
2023-07-09T08:37:05.920Z,81.67
2023-07-09T08:38:26.891Z,81.77
2023-07-09T08:39:05.869Z,81.57
2023-07-09T08:40:05.848Z,81.57
2023-07-09T08:41:06.036Z,81.18
2023-07-09T08:42:05.797Z,80.90
2023-07-09T08:43:05.779Z,80.41
2023-07-09T08:44:26.755Z,80.02
2023-07-09T08:46:05.840Z,80.74
2023-07-09T08:47:05.694Z,80.25
2023-07-09T08:48:05.734Z,80.15
2023-07-09T08:49:05.642Z,80.35
2023-07-09T08:50:26.631Z,80.05
2023-07-09T08:51:26.618Z,79.57
2023-07-09T08:52:05.590Z,78.53
2023-07-09T08:53:05.578Z,78.53
2023-07-09T08:54:05.529Z,78.14
2023-07-09T08:55:26.497Z,77.85
2023-07-09T08:56:26.495Z,77.36
2023-07-09T08:57:05.451Z,78.34
2023-07-09T08:58:05.437Z,78.34
2023-07-09T08:59:05.475Z,78.08
2023-07-09T09:00:26.391Z,78.38
2023-07-09T09:01:26.376Z,77.89
2023-07-09T09:02:05.451Z,78.18
2023-07-09T09:03:05.377Z,77.89
2023-07-09T09:04:05.590Z,77.64
2023-07-09T09:05:26.280Z,78.03
2023-07-09T09:06:26.246Z,77.93
2023-07-09T09:07:05.215Z,78.08
2023-07-09T09:08:06.925Z,77.44
2023-07-09T09:09:05.173Z,77.44
2023-07-09T09:10:26.140Z,77.64
2023-07-09T09:11:26.139Z,77.05
2023-07-09T09:12:05.076Z,76.76
2023-07-09T09:13:05.084Z,76.17
2023-07-09T09:14:05.163Z,76.27
2023-07-09T09:15:26.024Z,75.88
2023-07-09T09:16:26.025Z,76.17
2023-07-09T09:17:04.985Z,77.15
2023-07-09T09:18:04.995Z,77.09
2023-07-09T09:19:04.922Z,76.31
2023-07-09T09:20:25.919Z,75.33
2023-07-09T09:21:25.889Z,75.33
2023-07-09T09:22:06.209Z,75.04
2023-07-09T09:23:04.849Z,74.77
2023-07-09T09:24:04.808Z,74.48
2023-07-09T09:25:25.805Z,73.99
2023-07-09T09:27:04.806Z,73.31
2023-07-09T09:28:04.793Z,73.15
2023-07-09T09:29:04.755Z,73.21
2023-07-09T09:30:25.746Z,72.17
2023-07-09T09:32:47.313Z,72.96
2023-07-09T09:33:47.238Z,73.25
2023-07-09T09:35:51.173Z,72.41
2023-07-09T09:36:51.144Z,72.21
2023-07-09T09:37:51.121Z,71.98
2023-07-09T09:38:51.094Z,72.41
2023-07-09T09:40:07.045Z,71.81
2023-07-09T09:40:51.039Z,71.62
2023-07-09T09:41:51.018Z,72.21
2023-07-09T09:42:51.006Z,72.11
2023-07-09T09:43:50.976Z,72.31
2023-07-09T09:44:50.948Z,72.14
2023-07-09T09:45:50.929Z,70.84
2023-07-09T09:46:50.966Z,69.70
2023-07-09T09:47:50.905Z,69.50
2023-07-09T09:48:50.879Z,69.79
2023-07-09T09:49:50.837Z,70.68
2023-07-09T09:50:50.818Z,70.87
2023-07-09T09:51:50.799Z,71.07
2023-07-09T09:52:50.793Z,70.78
2023-07-09T09:53:50.745Z,69.40
2023-07-09T09:54:50.718Z,69.15
2023-07-09T09:55:50.700Z,69.54
2023-07-09T09:56:50.676Z,69.15
2023-07-09T09:57:50.659Z,67.77
2023-07-09T09:58:50.633Z,68.46
2023-07-09T09:59:50.635Z,68.46
2023-07-09T10:00:50.633Z,69.34
2023-07-09T10:01:50.598Z,69.27
2023-07-09T10:02:50.676Z,70.84
2023-07-09T10:03:52.769Z,69.86
2023-07-09T10:04:50.497Z,69.47
2023-07-09T10:05:50.475Z,69.08
2023-07-09T10:06:50.454Z,68.40
2023-07-09T10:07:50.459Z,67.90
2023-07-09T10:08:50.410Z,68.00
2023-07-09T10:09:50.419Z,66.34
2023-07-09T10:10:50.369Z,64.58
2023-07-09T10:11:50.343Z,62.32
2023-07-09T10:12:50.331Z,60.68
2023-07-09T10:13:50.364Z,59.21
2023-07-09T10:14:50.277Z,59.41
2023-07-09T10:15:50.255Z,59.61
2023-07-09T10:16:50.238Z,58.53
2023-07-09T10:17:50.287Z,59.01
2023-07-09T10:18:50.271Z,59.11
2023-07-09T10:19:50.166Z,59.34
2023-07-09T10:20:50.197Z,58.06
2023-07-09T10:21:50.127Z,58.26
2023-07-09T10:22:50.098Z,58.36
2023-07-09T10:23:50.127Z,58.45
2023-07-09T10:24:50.054Z,58.58
2023-07-09T10:25:50.036Z,58.29
2023-07-09T10:26:50.020Z,57.60
2023-07-09T10:27:50.000Z,57.70
2023-07-09T10:28:50.006Z,57.70
2023-07-09T10:29:49.953Z,57.01
2023-07-09T10:30:49.962Z,56.65
2023-07-09T10:31:49.902Z,57.24
2023-07-09T10:32:49.906Z,57.43
2023-07-09T10:33:49.862Z,56.94
2023-07-09T10:34:49.838Z,56.55
2023-07-09T10:35:49.813Z,56.45
2023-07-09T10:36:49.820Z,55.66
2023-07-09T10:37:49.796Z,56.16
2023-07-09T10:38:49.747Z,57.07
2023-07-09T10:39:49.754Z,56.38
2023-07-09T10:40:49.710Z,56.68
2023-07-09T10:41:49.696Z,56.58
2023-07-09T10:42:49.664Z,57.07
2023-07-09T10:43:49.659Z,57.59
2023-07-09T10:44:49.624Z,56.11
2023-07-09T10:45:49.597Z,55.82
2023-07-09T10:46:49.640Z,55.55
2023-07-09T10:47:49.614Z,54.96
2023-07-09T10:48:49.553Z,55.06
2023-07-09T10:49:49.517Z,55.16
2023-07-09T10:50:49.583Z,55.26
2023-07-09T10:51:49.490Z,54.69
2023-07-09T10:52:49.460Z,55.28
2023-07-09T10:53:49.441Z,54.39
2023-07-09T10:54:49.416Z,54.49
2023-07-09T10:55:49.389Z,55.01
2023-07-09T10:56:49.384Z,54.62
2023-07-09T10:57:49.357Z,54.13
2023-07-09T10:58:49.343Z,53.34
2023-07-09T10:59:49.343Z,53.27
2023-07-09T11:00:49.292Z,54.25
2023-07-09T11:01:49.303Z,53.59
2023-07-09T11:02:49.360Z,54.25
2023-07-09T11:03:49.245Z,54.47
2023-07-09T11:04:49.240Z,53.71
2023-07-09T11:05:49.202Z,52.83
2023-07-09T11:06:49.167Z,52.14
2023-07-09T11:07:49.154Z,53.44
2023-07-09T11:08:49.127Z,51.67
2023-07-09T11:09:49.140Z,51.97
2023-07-09T11:10:49.094Z,53.37
2023-07-09T11:11:49.076Z,52.98
2023-07-09T11:12:49.054Z,53.67
2023-07-09T11:13:52.457Z,51.92
2023-07-09T11:14:49.014Z,51.62
2023-07-09T11:15:49.582Z,51.92
2023-07-09T11:16:49.189Z,51.13
2023-07-09T11:17:49.090Z,50.16
2023-07-09T11:18:48.947Z,49.55
2023-07-09T11:19:49.390Z,49.65
2023-07-09T11:20:48.900Z,49.25
2023-07-09T11:21:48.886Z,48.75
2023-07-09T11:22:48.916Z,49.57
2023-07-09T11:23:48.941Z,48.28
2023-07-09T11:24:48.845Z,48.09
2023-07-09T11:25:48.818Z,49.08
2023-07-09T11:26:48.908Z,49.30
2023-07-09T11:27:48.776Z,48.80
2023-07-09T11:28:48.755Z,48.41
2023-07-09T11:29:48.746Z,49.20
2023-07-09T11:30:48.745Z,48.93
2023-07-09T11:31:48.886Z,48.24
2023-07-09T11:32:48.766Z,48.53
2023-07-09T11:33:48.787Z,47.64
2023-07-09T11:34:48.673Z,47.05
2023-07-09T11:35:48.625Z,46.44
2023-07-09T11:36:48.624Z,47.42
2023-07-09T11:37:48.690Z,47.52
2023-07-09T11:38:48.607Z,47.25
2023-07-09T11:39:48.572Z,47.64
2023-07-09T11:40:48.575Z,48.14
2023-07-09T11:41:48.513Z,47.25
2023-07-09T11:42:48.554Z,45.76
2023-07-09T11:43:48.479Z,46.55
2023-07-09T11:44:48.482Z,46.85
2023-07-09T11:45:48.497Z,46.45
2023-07-09T11:46:48.468Z,46.26
2023-07-09T11:47:48.438Z,45.76
2023-07-09T11:48:48.389Z,46.06
2023-07-09T11:49:48.366Z,45.67
2023-07-09T11:50:48.360Z,46.06
2023-07-09T11:51:48.377Z,46.26
2023-07-09T11:52:48.321Z,46.97
2023-07-09T11:53:48.306Z,46.67
2023-07-09T11:54:48.282Z,46.48
2023-07-09T11:55:48.268Z,45.67
2023-07-09T11:56:48.267Z,46.66
2023-07-09T11:57:48.226Z,46.38
2023-07-09T11:58:48.227Z,47.27
2023-07-09T11:59:48.210Z,46.26
2023-07-09T12:00:48.174Z,46.85
2023-07-09T12:01:48.278Z,46.45
2023-07-09T12:02:48.178Z,47.56
2023-07-09T12:03:48.161Z,45.89
2023-07-09T12:04:48.102Z,45.98
2023-07-09T12:05:48.085Z,45.49
2023-07-09T12:06:48.077Z,45.49
2023-07-09T12:07:48.054Z,45.21
2023-07-09T12:08:48.039Z,44.50
2023-07-09T12:09:48.009Z,44.72
2023-07-09T12:10:48.004Z,44.82
2023-07-09T12:11:47.980Z,44.62
2023-07-09T12:12:47.955Z,44.84
2023-07-09T12:13:47.975Z,44.54
2023-07-09T12:14:47.919Z,43.55
2023-07-09T12:15:47.935Z,44.05
2023-07-09T12:16:48.004Z,44.24
2023-07-09T12:17:47.977Z,44.05
2023-07-09T12:18:47.850Z,44.45
2023-07-09T12:19:47.825Z,43.75
2023-07-09T12:20:47.823Z,44.15
2023-07-09T12:21:47.806Z,43.95
2023-07-09T12:22:47.793Z,44.13
2023-07-09T12:23:47.789Z,44.92
2023-07-09T12:24:47.762Z,44.42
2023-07-09T12:25:47.733Z,44.32
2023-07-09T12:26:47.709Z,44.42
2023-07-09T12:27:47.697Z,44.24
2023-07-09T12:28:47.676Z,44.84
2023-07-09T12:29:47.749Z,44.64
2023-07-09T12:30:48.530Z,44.15
2023-07-09T12:31:47.689Z,43.85
2023-07-09T12:32:47.716Z,43.93
2023-07-09T12:33:47.631Z,44.02
2023-07-09T12:34:47.567Z,44.62
2023-07-09T12:35:47.549Z,44.92
2023-07-09T12:36:47.524Z,45.00
2023-07-09T12:37:47.509Z,44.90
2023-07-09T12:38:47.498Z,44.90
2023-07-09T12:39:47.469Z,45.49
2023-07-09T12:40:47.459Z,45.51
2023-07-09T12:41:47.458Z,45.79
2023-07-09T12:42:47.416Z,44.90
2023-07-09T12:43:47.400Z,45.37
2023-07-09T12:44:47.390Z,45.47
2023-07-09T12:45:47.384Z,45.74
2023-07-09T12:46:47.400Z,46.53
2023-07-09T12:47:47.368Z,45.74
2023-07-09T12:48:47.314Z,45.54
2023-07-09T12:49:47.288Z,45.25
2023-07-09T12:50:47.280Z,45.25
2023-07-09T12:51:47.252Z,45.96
2023-07-09T12:52:47.235Z,45.25
2023-07-09T12:53:47.210Z,45.25
2023-07-09T12:54:47.201Z,45.27
2023-07-09T12:55:47.173Z,46.06
2023-07-09T12:56:47.174Z,45.49